createdAt,value
2019-04-14T00:01:10.852Z,13.03
2019-04-14T00:03:45.442Z,13.93
2019-04-14T00:06:18.104Z,14.33
2019-04-14T00:08:50.249Z,15.15
2019-04-14T00:11:23.327Z,14.03
2019-04-14T00:13:56.653Z,14.28
2019-04-14T00:16:29.188Z,14.80
2019-04-14T00:19:02.299Z,14.00
2019-04-14T00:21:34.744Z,14.45
2019-04-14T00:24:07.427Z,15.20
2019-04-14T00:26:40.219Z,15.88
2019-04-14T00:29:13.066Z,15.63
2019-04-14T00:31:45.528Z,16.12
2019-04-14T00:34:18.866Z,15.58
2019-04-14T00:36:52.348Z,15.10
2019-04-14T00:39:27.198Z,16.00
2019-04-14T00:42:03.350Z,14.43
2019-04-14T00:44:36.498Z,15.63
2019-04-14T00:47:11.833Z,15.10
2019-04-14T00:49:46.162Z,16.75
2019-04-14T00:52:18.968Z,15.70
2019-04-14T00:54:52.033Z,15.25
2019-04-14T00:57:24.818Z,16.02
2019-04-14T00:59:57.322Z,15.63
2019-04-14T01:02:29.729Z,14.87
2019-04-14T01:05:02.555Z,16.30
2019-04-14T01:07:34.882Z,15.10
2019-04-14T01:10:08.538Z,16.48
2019-04-14T01:12:41.041Z,15.13
2019-04-14T01:15:13.719Z,16.95
2019-04-14T01:17:46.213Z,16.12
2019-04-14T01:20:18.925Z,15.80
2019-04-14T01:22:51.290Z,16.20
2019-04-14T01:25:23.912Z,16.05
2019-04-14T01:27:56.226Z,16.02
2019-04-14T01:30:28.412Z,15.80
2019-04-14T01:33:01.096Z,15.65
2019-04-14T01:35:33.555Z,15.38
2019-04-14T01:38:05.942Z,15.83
2019-04-14T01:40:38.771Z,15.80
2019-04-14T01:43:10.745Z,16.60
2019-04-14T01:45:42.731Z,16.42
2019-04-14T01:48:14.962Z,16.37
2019-04-14T01:50:49.584Z,16.65
2019-04-14T01:53:23.320Z,15.03
2019-04-14T01:55:56.994Z,15.85
2019-04-14T01:58:30.378Z,16.37
2019-04-14T02:01:04.092Z,15.72
2019-04-14T02:03:36.623Z,16.55
2019-04-14T02:06:09.286Z,18.80
2019-04-14T02:08:41.563Z,18.82
2019-04-14T02:11:13.873Z,18.80
2019-04-14T02:13:46.454Z,18.98
2019-04-14T02:16:29.161Z,19.40
2019-04-14T02:18:54.904Z,20.12
2019-04-14T02:21:25.976Z,18.67
2019-04-14T02:23:58.439Z,18.70
2019-04-14T02:26:31.079Z,18.15
2019-04-14T02:29:03.618Z,17.87
2019-04-14T02:32:03.572Z,17.65
2019-04-14T02:37:10.857Z,18.07
2019-04-14T02:39:46.741Z,16.80
2019-04-14T02:47:45.467Z,16.73
2019-04-14T02:49:56.152Z,17.65
2019-04-14T02:52:35.561Z,18.02
2019-04-14T02:55:25.241Z,16.07
2019-04-14T02:57:47.903Z,16.45
2019-04-14T03:02:48.675Z,15.45
2019-04-14T03:05:28.498Z,14.05
2019-04-14T03:07:59.876Z,14.60
2019-04-14T03:10:51.911Z,13.68
2019-04-14T03:13:29.250Z,14.18
2019-04-14T03:16:02.264Z,14.53
2019-04-14T03:18:38.197Z,13.95
2019-04-14T03:21:13.663Z,12.82
2019-04-14T03:23:49.875Z,12.82
2019-04-14T03:26:19.775Z,13.40
2019-04-14T03:28:51.422Z,13.65
2019-04-14T03:39:33.459Z,13.43
2019-04-14T03:41:45.110Z,13.05
2019-04-14T03:44:37.604Z,12.35
2019-04-14T03:46:55.456Z,11.88
2019-04-14T03:51:57.778Z,12.88
2019-04-14T03:54:34.977Z,12.35
2019-04-14T03:56:49.321Z,12.65
2019-04-14T03:59:21.994Z,12.50
2019-04-14T04:02:14.006Z,11.55
2019-04-14T04:04:46.694Z,11.63
2019-04-14T04:07:19.241Z,11.38
2019-04-14T04:09:54.133Z,11.38
2019-04-14T04:12:27.065Z,11.55
2019-04-14T04:15:00.009Z,10.58
2019-04-14T04:17:34.172Z,10.35
2019-04-14T04:20:09.122Z,10.70
2019-04-14T04:22:43.433Z,11.70
2019-04-14T04:25:18.206Z,10.72
2019-04-14T04:27:52.555Z,9.83
2019-04-14T04:30:27.537Z,9.98
2019-04-14T04:33:00.047Z,10.08
2019-04-14T04:35:32.665Z,8.45
2019-04-14T04:38:05.178Z,9.10
2019-04-14T04:40:57.176Z,9.15
2019-04-14T04:43:38.812Z,8.73
2019-04-14T04:46:11.361Z,9.00
2019-04-14T04:48:43.817Z,8.85
2019-04-14T04:51:18.212Z,9.98
2019-04-14T04:53:50.496Z,9.05
2019-04-14T04:56:23.251Z,9.25
2019-04-14T04:58:56.695Z,8.23
2019-04-14T05:01:29.603Z,8.28
2019-04-14T05:04:02.378Z,8.10
2019-04-14T05:06:37.835Z,8.05
2019-04-14T05:09:12.274Z,8.75
2019-04-14T05:11:46.879Z,8.43
2019-04-14T05:14:21.583Z,8.85
2019-04-14T05:16:54.925Z,7.97
2019-04-14T05:19:31.833Z,8.50
2019-04-14T05:22:00.669Z,8.43
2019-04-14T05:24:33.245Z,7.75
2019-04-14T05:27:05.750Z,7.83
2019-04-14T05:29:38.574Z,8.35
2019-04-14T05:32:10.904Z,8.40
2019-04-14T05:34:43.326Z,7.92
2019-04-14T05:37:16.070Z,8.55
2019-04-14T05:39:48.465Z,7.97
2019-04-14T05:42:25.160Z,7.58
2019-04-14T05:44:55.813Z,8.13
2019-04-14T05:47:28.381Z,7.75
2019-04-14T05:50:00.908Z,7.28
2019-04-14T05:52:33.912Z,7.80
2019-04-14T05:55:09.002Z,7.50
2019-04-14T05:57:41.651Z,7.22
2019-04-14T06:00:17.248Z,7.03
2019-04-14T06:02:59.411Z,6.80
2019-04-14T06:05:31.795Z,6.85
2019-04-14T06:08:04.017Z,7.95
2019-04-14T06:10:38.659Z,7.47
2019-04-14T06:13:11.901Z,6.53
2019-04-14T06:15:44.020Z,6.45
2019-04-14T06:18:16.190Z,6.00
2019-04-14T06:20:48.439Z,6.22
2019-04-14T06:23:20.435Z,6.20
2019-04-14T06:25:52.676Z,6.15
2019-04-14T06:28:24.827Z,5.87
2019-04-14T06:30:57.185Z,6.15
2019-04-14T06:33:30.584Z,7.03
2019-04-14T06:36:04.439Z,6.50
2019-04-14T06:38:37.730Z,6.67
2019-04-14T06:41:11.967Z,6.78
2019-04-14T06:43:49.162Z,6.42
2019-04-14T06:46:18.157Z,5.55
2019-04-14T06:48:50.198Z,6.00
2019-04-14T06:51:22.302Z,6.87
2019-04-14T06:53:54.558Z,6.33
2019-04-14T06:56:26.375Z,7.70
2019-04-14T06:58:58.310Z,6.53
2019-04-14T07:01:32.342Z,6.67
2019-04-14T07:04:04.356Z,6.35
2019-04-14T07:06:55.145Z,6.15
2019-04-14T07:09:27.546Z,6.83
2019-04-14T07:11:59.832Z,6.37
2019-04-14T07:14:32.195Z,7.03
2019-04-14T07:17:04.308Z,6.28
2019-04-14T07:19:36.620Z,6.70
2019-04-14T07:22:09.139Z,6.22
2019-04-14T07:24:40.794Z,6.92
2019-04-14T07:27:12.542Z,6.37
2019-04-14T07:29:46.205Z,5.92
2019-04-14T07:32:19.530Z,6.12
2019-04-14T07:34:53.405Z,5.75
2019-04-14T07:37:26.818Z,6.15
2019-04-14T07:40:00.613Z,5.28
2019-04-14T07:42:33.922Z,6.53
2019-04-14T07:45:08.437Z,6.70
2019-04-14T07:47:40.297Z,6.90
2019-04-14T07:50:15.295Z,7.95
2019-04-14T07:52:47.339Z,7.15
2019-04-14T07:55:21.944Z,6.60
2019-04-14T07:57:55.354Z,7.03
2019-04-14T08:00:29.253Z,6.83
2019-04-14T08:03:03.273Z,6.70
2019-04-14T08:05:36.879Z,7.50
2019-04-14T08:08:09.538Z,6.22
2019-04-14T08:10:41.732Z,7.97
2019-04-14T08:13:14.444Z,7.45
2019-04-14T08:15:46.601Z,7.10
2019-04-14T08:18:18.457Z,6.60
2019-04-14T08:20:50.643Z,6.62
2019-04-14T08:23:23.072Z,7.85
2019-04-14T08:25:55.194Z,8.43
2019-04-14T08:28:27.433Z,8.60
2019-04-14T08:30:59.660Z,7.58
2019-04-14T08:33:31.752Z,7.33
2019-04-14T08:36:04.311Z,7.47
2019-04-14T08:38:36.553Z,7.10
2019-04-14T08:41:08.568Z,7.03
2019-04-14T08:43:42.568Z,7.80
2019-04-14T08:46:16.546Z,7.47
2019-04-14T08:48:48.198Z,6.87
2019-04-14T08:51:21.994Z,7.30
2019-04-14T08:53:55.138Z,7.25
2019-04-14T08:56:29.024Z,6.75
2019-04-14T08:59:02.463Z,7.30
2019-04-14T09:01:54.749Z,6.62
2019-04-14T09:04:29.105Z,7.30
2019-04-14T09:07:11.581Z,7.12
2019-04-14T09:10:04.712Z,7.97
2019-04-14T09:12:38.324Z,6.80
2019-04-14T09:15:11.011Z,6.60
2019-04-14T09:17:46.404Z,6.40
2019-04-14T09:20:19.189Z,7.08
2019-04-14T09:22:51.245Z,8.05
2019-04-14T09:25:23.480Z,7.12
2019-04-14T09:27:55.446Z,7.72
2019-04-14T09:30:27.811Z,7.20
2019-04-14T09:32:59.847Z,6.67
2019-04-14T09:35:32.323Z,6.97
2019-04-14T09:38:04.786Z,7.42
2019-04-14T09:40:37.377Z,7.95
2019-04-14T09:43:10.355Z,8.48
2019-04-14T09:45:42.212Z,8.75
2019-04-14T09:48:14.010Z,8.85
2019-04-14T09:50:47.393Z,7.22
2019-04-14T09:53:19.469Z,8.43
2019-04-14T09:55:51.608Z,7.95
2019-04-14T09:58:24.561Z,8.25
2019-04-14T10:00:56.490Z,7.30
2019-04-14T10:03:30.569Z,7.33
2019-04-14T10:06:02.900Z,7.15
2019-04-14T10:08:53.970Z,8.53
2019-04-14T10:11:26.416Z,8.10
2019-04-14T10:13:58.425Z,9.00
2019-04-14T10:16:49.683Z,8.05
2019-04-14T10:19:21.760Z,9.23
2019-04-14T10:21:54.056Z,8.35
2019-04-14T10:24:26.904Z,7.92
2019-04-14T10:26:59.045Z,7.72
2019-04-14T10:29:51.139Z,8.20
2019-04-14T10:32:23.194Z,7.53
2019-04-14T10:35:14.347Z,7.50
2019-04-14T10:37:46.951Z,7.22
2019-04-14T10:40:18.821Z,7.05
2019-04-14T10:42:50.902Z,7.05
2019-04-14T10:45:23.448Z,7.70
2019-04-14T10:47:55.878Z,7.72
2019-04-14T10:50:31.132Z,7.62
2019-04-14T10:53:01.934Z,7.97
2019-04-14T10:55:33.786Z,6.78
2019-04-14T10:58:05.832Z,6.90
2019-04-14T11:00:38.479Z,7.83
2019-04-14T11:03:10.959Z,7.40
2019-04-14T11:05:45.359Z,7.45
2019-04-14T11:08:18.130Z,7.40
2019-04-14T11:10:50.962Z,8.30
2019-04-14T11:13:23.155Z,7.95
2019-04-14T11:15:55.488Z,7.90
2019-04-14T11:18:28.690Z,7.80
2019-04-14T11:21:00.617Z,7.67
2019-04-14T11:23:32.961Z,8.88
2019-04-14T11:26:05.579Z,8.78
2019-04-14T11:28:37.382Z,9.20
2019-04-14T11:31:10.081Z,9.15
2019-04-14T11:33:43.553Z,9.75
2019-04-14T11:36:17.762Z,10.40
2019-04-14T11:39:03.288Z,9.55
2019-04-14T11:41:35.429Z,11.12
2019-04-14T11:44:07.801Z,10.25
2019-04-14T11:46:40.876Z,10.60
2019-04-14T11:49:13.162Z,10.80
2019-04-14T11:51:55.237Z,10.15
2019-04-14T11:54:18.843Z,10.93
2019-04-14T11:56:51.203Z,10.60
2019-04-14T11:59:24.641Z,8.65
2019-04-14T12:01:58.612Z,8.75
2019-04-14T12:04:32.311Z,8.43
2019-04-14T12:07:05.991Z,8.28
2019-04-14T12:09:39.983Z,6.85
2019-04-14T12:12:12.529Z,7.00
2019-04-14T12:14:44.513Z,6.55
2019-04-14T12:17:16.204Z,5.92
2019-04-14T12:19:48.793Z,6.12
2019-04-14T12:22:20.895Z,5.42
2019-04-14T12:24:53.407Z,5.80
2019-04-14T12:27:25.918Z,6.08
2019-04-14T12:29:58.903Z,5.37
2019-04-14T12:32:32.827Z,5.83
2019-04-14T12:35:05.124Z,5.08
2019-04-14T12:37:37.189Z,4.78
2019-04-14T12:40:10.614Z,5.30
2019-04-14T12:42:43.827Z,5.17
2019-04-14T12:45:18.163Z,4.92
2019-04-14T12:47:51.683Z,5.00
2019-04-14T12:50:25.104Z,5.53
2019-04-14T12:52:58.251Z,4.60
2019-04-14T12:55:30.506Z,6.35
2019-04-14T12:58:03.819Z,5.58
2019-04-14T13:00:37.858Z,7.50
2019-04-14T13:03:10.116Z,7.20
2019-04-14T13:05:42.317Z,6.92
2019-04-14T13:08:14.793Z,6.10
2019-04-14T13:10:47.567Z,6.50
2019-04-14T13:13:39.923Z,7.42
2019-04-14T13:16:13.836Z,6.05
2019-04-14T13:18:46.492Z,6.15
2019-04-14T13:21:18.535Z,6.80
2019-04-14T13:23:50.788Z,5.90
2019-04-14T13:26:22.903Z,7.47
2019-04-14T13:28:54.616Z,8.35
2019-04-14T13:31:27.130Z,9.55
2019-04-14T13:34:00.313Z,7.50
2019-04-14T13:36:32.264Z,6.67
2019-04-14T13:39:06.167Z,6.97
2019-04-14T13:41:38.929Z,7.28
2019-04-14T13:44:17.629Z,7.70
2019-04-14T13:46:52.540Z,7.55
2019-04-14T13:49:27.734Z,7.67
2019-04-14T13:51:59.742Z,7.75
2019-04-14T13:54:51.284Z,9.45
2019-04-14T13:57:23.599Z,10.48
2019-04-14T13:59:55.378Z,13.30
2019-04-14T14:03:06.776Z,13.38
2019-04-14T14:05:39.776Z,12.85
2019-04-14T14:08:11.923Z,12.30
2019-04-14T14:10:43.872Z,13.15
2019-04-14T14:13:18.617Z,13.50
2019-04-14T14:15:51.773Z,12.82
2019-04-14T14:18:25.675Z,12.70
2019-04-14T14:20:59.551Z,11.55
2019-04-14T14:23:33.156Z,11.57
2019-04-14T14:26:06.371Z,11.48
2019-04-14T14:28:38.809Z,13.32
2019-04-14T14:31:11.078Z,13.70
2019-04-14T14:33:45.250Z,12.03
2019-04-14T14:36:16.858Z,12.68
2019-04-14T14:38:48.778Z,12.90
2019-04-14T14:41:21.007Z,14.03
2019-04-14T14:43:53.121Z,13.65
2019-04-14T14:46:26.681Z,14.07
2019-04-14T14:49:00.243Z,13.90
2019-04-14T14:51:33.889Z,15.15
2019-04-14T14:54:06.472Z,15.48
2019-04-14T14:56:38.614Z,14.20
2019-04-14T14:59:11.113Z,14.55
2019-04-14T15:01:43.247Z,14.35
2019-04-14T15:04:15.582Z,15.35
2019-04-14T15:06:47.622Z,15.60
2019-04-14T15:09:19.814Z,16.80
2019-04-14T15:11:51.934Z,14.60
2019-04-14T15:14:24.930Z,16.55
2019-04-14T15:16:57.057Z,15.55
2019-04-14T15:19:29.259Z,17.10
2019-04-14T15:22:01.414Z,17.10
2019-04-14T15:24:33.722Z,16.07
2019-04-14T15:27:05.853Z,15.78
2019-04-14T15:29:38.820Z,16.15
2019-04-14T15:32:10.767Z,15.18
2019-04-14T15:34:49.072Z,15.00
2019-04-14T15:37:21.070Z,14.90
2019-04-14T15:40:12.584Z,14.45
2019-04-14T15:42:44.670Z,13.58
2019-04-14T15:45:16.924Z,13.98
2019-04-14T15:47:49.542Z,12.73
2019-04-14T15:50:21.606Z,12.90
2019-04-14T15:52:53.820Z,12.93
2019-04-14T15:55:25.741Z,12.03
2019-04-14T15:57:57.362Z,11.75
2019-04-14T16:00:31.962Z,12.45
2019-04-14T16:03:04.911Z,12.37
2019-04-14T16:05:38.389Z,10.90
2019-04-14T16:08:11.546Z,11.22
2019-04-14T16:10:44.962Z,10.60
2019-04-14T16:13:16.554Z,10.98
2019-04-14T16:15:50.495Z,10.98
2019-04-14T16:18:23.420Z,11.90
2019-04-14T16:20:55.246Z,11.45
2019-04-14T16:23:27.502Z,11.60
2019-04-14T16:26:00.660Z,10.60
2019-04-14T16:28:33.800Z,11.25
2019-04-14T16:31:07.171Z,10.88
2019-04-14T16:33:40.312Z,12.90
2019-04-14T16:36:12.041Z,12.47
2019-04-14T16:38:45.454Z,12.07
2019-04-14T16:41:20.093Z,10.15
2019-04-14T16:43:51.970Z,10.95
2019-04-14T16:46:23.936Z,11.50
2019-04-14T16:48:55.772Z,11.03
2019-04-14T16:51:29.667Z,10.70
2019-04-14T16:54:03.544Z,11.03
2019-04-14T16:56:37.485Z,11.33
2019-04-14T16:59:10.475Z,11.20
2019-04-14T17:01:44.543Z,11.38
2019-04-14T17:04:16.624Z,11.65
2019-04-14T17:06:49.038Z,10.78
2019-04-14T17:09:20.979Z,11.57
2019-04-14T17:11:52.710Z,11.60
2019-04-14T17:14:26.078Z,11.93
2019-04-14T17:17:01.087Z,11.68
2019-04-14T17:19:34.307Z,10.28
2019-04-14T17:22:06.265Z,10.78
2019-04-14T17:24:39.602Z,11.35
2019-04-14T17:27:12.706Z,12.13
2019-04-14T17:29:46.242Z,12.55
2019-04-14T17:32:20.258Z,11.10
2019-04-14T17:34:51.796Z,11.30
2019-04-14T17:37:25.007Z,11.33
2019-04-14T17:39:57.039Z,10.95
2019-04-14T17:42:31.380Z,10.53
2019-04-14T17:45:03.406Z,10.65
2019-04-14T17:47:36.963Z,10.55
2019-04-14T17:50:12.508Z,11.25
2019-04-14T17:52:45.794Z,10.38
2019-04-14T17:55:19.612Z,11.15
2019-04-14T17:57:52.898Z,11.63
2019-04-14T18:00:26.413Z,10.25
2019-04-14T18:02:59.804Z,10.70
2019-04-14T18:05:33.378Z,9.98
2019-04-14T18:08:06.911Z,11.05
2019-04-14T18:10:40.993Z,10.70
2019-04-14T18:13:14.728Z,10.15
2019-04-14T18:15:48.125Z,10.05
2019-04-14T18:18:22.436Z,10.20
2019-04-14T18:20:56.467Z,9.98
2019-04-14T18:23:28.682Z,10.15
2019-04-14T18:26:00.781Z,10.58
2019-04-14T18:28:32.351Z,10.18
2019-04-14T18:31:05.650Z,10.30
2019-04-14T18:33:58.196Z,10.80
2019-04-14T18:36:32.407Z,10.43
2019-04-14T18:39:06.316Z,12.05
2019-04-14T18:41:39.715Z,9.63
2019-04-14T18:44:13.213Z,10.90
2019-04-14T18:46:46.615Z,10.82
2019-04-14T18:49:20.527Z,10.75
2019-04-14T18:51:53.929Z,10.90
2019-04-14T18:54:27.931Z,10.63
2019-04-14T18:57:01.235Z,11.03
2019-04-14T18:59:35.243Z,11.83
2019-04-14T19:02:07.199Z,10.50
2019-04-14T19:04:38.977Z,10.68
2019-04-14T19:07:11.171Z,10.78
2019-04-14T19:09:42.896Z,11.40
2019-04-14T19:12:16.407Z,11.33
2019-04-14T19:14:49.947Z,11.00
2019-04-14T19:17:23.165Z,11.73
2019-04-14T19:20:01.667Z,11.28
2019-04-14T19:22:31.033Z,10.48
2019-04-14T19:25:08.493Z,10.50
2019-04-14T19:27:36.580Z,10.40
2019-04-14T19:30:27.467Z,11.50
2019-04-14T19:33:00.480Z,10.85
2019-04-14T19:35:32.475Z,11.68
2019-04-14T19:38:04.147Z,11.30
2019-04-14T19:40:36.521Z,11.10
2019-04-14T19:43:08.636Z,11.30
2019-04-14T19:45:40.482Z,10.98
2019-04-14T19:48:12.525Z,11.30
2019-04-14T19:50:45.133Z,11.35
2019-04-14T19:53:17.065Z,10.93
2019-04-14T19:55:48.997Z,12.07
2019-04-14T19:58:21.194Z,11.33
2019-04-14T20:00:53.253Z,11.08
2019-04-14T20:03:25.075Z,10.82
2019-04-14T20:05:57.237Z,11.35
2019-04-14T20:08:29.236Z,11.30
2019-04-14T20:11:01.027Z,11.60
2019-04-14T20:13:34.491Z,11.88
2019-04-14T20:16:06.105Z,11.00
2019-04-14T20:18:39.624Z,11.40
2019-04-14T20:21:13.806Z,11.53
2019-04-14T20:23:47.382Z,10.72
2019-04-14T20:26:21.216Z,10.98
2019-04-14T20:28:52.945Z,10.98
2019-04-14T20:31:26.624Z,10.40
2019-04-14T20:33:58.829Z,11.43
2019-04-14T20:36:30.952Z,11.00
2019-04-14T20:39:03.653Z,10.93
2019-04-14T20:41:35.572Z,12.13
2019-04-14T20:44:07.754Z,11.53
2019-04-14T20:46:40.107Z,12.20
2019-04-14T20:49:12.215Z,11.75
2019-04-14T20:51:44.403Z,10.88
2019-04-14T20:54:16.752Z,12.13
2019-04-14T20:56:48.700Z,11.50
2019-04-14T20:59:20.891Z,11.35
2019-04-14T21:01:54.593Z,12.28
2019-04-14T21:04:30.961Z,11.22
2019-04-14T21:07:04.610Z,11.97
2019-04-14T21:09:38.231Z,11.20
2019-04-14T21:12:12.287Z,12.33
2019-04-14T21:14:45.512Z,12.75
2019-04-14T21:17:17.354Z,11.83
2019-04-14T21:19:50.781Z,12.13
2019-04-14T21:22:24.726Z,11.50
2019-04-14T21:24:58.285Z,12.43
2019-04-14T21:27:31.604Z,11.85
2019-04-14T21:30:05.558Z,12.50
2019-04-14T21:32:39.299Z,12.10
2019-04-14T21:35:13.328Z,11.70
2019-04-14T21:37:45.329Z,11.63
2019-04-14T21:40:18.937Z,12.40
2019-04-14T21:42:50.762Z,11.00
2019-04-14T21:45:26.044Z,12.53
2019-04-14T21:47:57.287Z,12.23
2019-04-14T21:50:48.319Z,12.00
2019-04-14T21:53:20.454Z,14.87
2019-04-14T21:55:52.560Z,13.78
2019-04-14T21:58:26.107Z,13.58
2019-04-14T22:01:02.940Z,12.33
2019-04-14T22:03:36.376Z,13.20
2019-04-14T22:06:09.766Z,13.22
2019-04-14T22:08:43.541Z,13.10
2019-04-14T22:11:16.873Z,13.53
2019-04-14T22:13:51.061Z,12.80
2019-04-14T22:16:22.490Z,12.28
2019-04-14T22:18:56.921Z,12.63
2019-04-14T22:21:28.787Z,13.08
2019-04-14T22:24:02.356Z,13.00
2019-04-14T22:26:34.276Z,13.43
2019-04-14T22:29:06.108Z,12.85
2019-04-14T22:31:38.202Z,13.95
2019-04-14T22:34:10.283Z,12.45
2019-04-14T22:36:42.521Z,12.70
2019-04-14T22:39:16.833Z,13.10
2019-04-14T22:41:48.968Z,12.85
2019-04-14T22:44:21.113Z,12.95
2019-04-14T22:46:53.159Z,13.40
2019-04-14T22:49:25.109Z,12.82
2019-04-14T22:51:57.109Z,13.72
2019-04-14T22:54:29.952Z,13.50
2019-04-14T22:57:02.124Z,13.85
2019-04-14T22:59:34.335Z,14.38
2019-04-14T23:02:07.939Z,13.55
2019-04-14T23:04:40.468Z,13.95
2019-04-14T23:07:13.642Z,13.35
2019-04-14T23:09:47.040Z,14.07
2019-04-14T23:12:20.255Z,14.73
2019-04-14T23:14:53.765Z,14.30
2019-04-14T23:17:27.271Z,13.32
2019-04-14T23:20:01.384Z,14.15
2019-04-14T23:22:34.478Z,15.08
2019-04-14T23:25:07.605Z,14.03
2019-04-14T23:27:39.700Z,14.28
2019-04-14T23:30:12.370Z,14.68
2019-04-14T23:32:44.831Z,15.10
2019-04-14T23:35:17.018Z,15.13
2019-04-14T23:37:49.350Z,15.58
2019-04-14T23:40:21.286Z,13.93
2019-04-14T23:42:53.906Z,15.13
2019-04-14T23:45:26.237Z,16.93
2019-04-14T23:48:17.729Z,19.37
2019-04-14T23:50:50.311Z,20.20
2019-04-14T23:53:22.273Z,17.92
2019-04-14T23:55:54.688Z,17.20
2019-04-14T23:58:27.173Z,17.27
